Time;durP1;ratioP1;P1;durP2;ratioP2;P2;SDS_P1;SDS_P2;PMS_P1;PMS_P2;Temp;Humidity;BMP_temperature;BMP_pressure;BME280_temperature;BME280_humidity;BME280_pressure;Samples;Min_cycle;Max_cycle;Signal;HPM_P1;HPM_P2
2021/12/09 00:00:58;;;;;;;22.00;12.30;;;;;;;;;;4999264;28;20324;-79
2021/12/09 00:03:24;;;;;;;23.58;12.90;;;;;;;;;;4999349;28;20034;-79
2021/12/09 00:05:50;;;;;;;26.13;13.07;;;;;;;;;;4999401;28;20014;-79
2021/12/09 00:08:16;;;;;;;26.85;14.45;;;;;;;;;;4998870;28;20340;-80
2021/12/09 00:10:42;;;;;;;26.52;14.20;;;;;;;;;;4998919;28;20019;-79
2021/12/09 00:13:08;;;;;;;28.17;14.18;;;;;;;;;;4999008;28;20105;-79
2021/12/09 00:15:34;;;;;;;23.52;13.07;;;;;;;;;;4998716;28;20068;-79
2021/12/09 00:18:00;;;;;;;19.25;12.10;;;;;;;;;;5149854;23;20130;-79
2021/12/09 00:20:26;;;;;;;20.15;11.00;;;;;;;;;;4998639;28;20034;-79
2021/12/09 00:22:52;;;;;;;18.38;11.13;;;;;;;;;;4999012;28;20425;-79
2021/12/09 00:25:18;;;;;;;21.88;10.80;;;;;;;;;;4998354;28;20125;-79
2021/12/09 00:27:44;;;;;;;25.98;11.95;;;;;;;;;;4997450;28;20014;-79
2021/12/09 00:30:11;;;;;;;23.42;13.18;;;;;;;;;;4999860;28;20037;-79
2021/12/09 00:32:38;;;;;;;19.40;10.82;;;;;;;;;;4998372;28;20026;-79
2021/12/09 00:35:05;;;;;;;21.65;10.23;;;;;;;;;;4999188;28;20421;-80
2021/12/09 00:37:51;;;;;;;25.15;12.85;;;;;;;;;;4980522;28;20050;-79
2021/12/09 00:40:17;;;;;;;18.20;11.63;;;;;;;;;;4998239;28;20022;-79
2021/12/09 00:42:43;;;;;;;17.98;10.93;;;;;;;;;;4999056;28;20081;-79
2021/12/09 00:47:44;;;;;;;19.52;11.05;;;;;;;;;;5220246;23;20266;-80
2021/12/09 00:50:10;;;;;;;20.95;10.68;;;;;;;;;;5000312;28;20073;-79
2021/12/09 00:52:36;;;;;;;22.20;12.13;;;;;;;;;;4998290;28;20026;-79
2021/12/09 00:55:03;;;;;;;22.08;11.35;;;;;;;;;;4998291;28;20499;-80
2021/12/09 00:57:29;;;;;;;21.67;10.88;;;;;;;;;;4998668;28;20154;-80
2021/12/09 00:59:56;;;;;;;18.58;10.95;;;;;;;;;;4998294;28;20026;-80
2021/12/09 01:02:22;;;;;;;21.10;11.90;;;;;;;;;;4996501;28;20021;-80
2021/12/09 01:04:48;;;;;;;33.70;21.35;;;;;;;;;;4998985;28;20034;-80
2021/12/09 01:07:14;;;;;;;42.90;24.73;;;;;;;;;;4998065;28;20097;-80
2021/12/09 01:09:40;;;;;;;28.77;17.08;;;;;;;;;;4997645;28;20022;-80
2021/12/09 01:12:07;;;;;;;29.95;14.07;;;;;;;;;;4999406;28;20022;-80
2021/12/09 01:14:34;;;;;;;38.08;17.80;;;;;;;;;;4999777;28;20014;-80
2021/12/09 01:17:00;;;;;;;26.75;12.45;;;;;;;;;;4999207;28;20030;-80
2021/12/09 01:19:29;;;;;;;20.67;11.02;;;;;;;;;;5001294;28;20023;-80
2021/12/09 01:21:55;;;;;;;21.67;12.27;;;;;;;;;;5003835;28;20086;-81
2021/12/09 01:24:21;;;;;;;23.10;11.05;;;;;;;;;;5002448;28;20053;-81
2021/12/09 01:26:49;;;;;;;25.88;10.90;;;;;;;;;;5002355;28;20011;-80
2021/12/09 01:29:19;;;;;;;30.67;13.25;;;;;;;;;;5003047;28;20018;-81
2021/12/09 01:31:55;;;;;;;26.75;13.60;;;;;;;;;;4984947;28;20022;-81
2021/12/09 01:34:22;;;;;;;24.17;9.80;;;;;;;;;;4999431;28;20085;-81
2021/12/09 01:36:50;;;;;;;16.65;11.02;;;;;;;;;;5009617;23;20468;-81
2021/12/09 01:39:17;;;;;;;18.50;10.75;;;;;;;;;;5000348;28;20584;-81
2021/12/09 01:41:43;;;;;;;15.75;9.73;;;;;;;;;;4999020;28;20022;-81
2021/12/09 01:44:09;;;;;;;17.13;10.13;;;;;;;;;;4982908;28;20107;-81
2021/12/09 01:46:36;;;;;;;24.08;11.00;;;;;;;;;;5000662;28;20018;-81
2021/12/09 01:49:02;;;;;;;21.98;12.13;;;;;;;;;;5001403;28;20026;-80
2021/12/09 01:51:29;;;;;;;26.67;16.77;;;;;;;;;;5000852;28;20368;-80
2021/12/09 01:53:55;;;;;;;21.88;12.07;;;;;;;;;;5001841;28;20026;-81
2021/12/09 01:56:26;;;;;;;22.85;11.90;;;;;;;;;;5002359;28;20022;-81
2021/12/09 01:58:54;;;;;;;31.33;18.55;;;;;;;;;;4983356;28;20025;-81
2021/12/09 02:01:20;;;;;;;22.77;12.10;;;;;;;;;;5005379;23;20035;-82
2021/12/09 02:03:47;;;;;;;23.05;11.75;;;;;;;;;;5001417;28;20034;-81
2021/12/09 02:06:14;;;;;;;21.55;10.90;;;;;;;;;;5000274;28;20026;-80
2021/12/09 02:08:40;;;;;;;19.05;9.82;;;;;;;;;;4983588;28;20445;-81
2021/12/09 02:11:06;;;;;;;23.23;10.35;;;;;;;;;;4999350;28;20022;-81
2021/12/09 02:13:32;;;;;;;20.20;11.20;;;;;;;;;;4984544;28;20022;-81
2021/12/09 02:15:59;;;;;;;19.70;8.23;;;;;;;;;;5002094;28;20025;-81
2021/12/09 02:21:18;;;;;;;17.98;9.48;;;;;;;;;;5231976;23;20104;-80
2021/12/09 02:23:55;;;;;;;24.27;10.93;;;;;;;;;;4976111;23;20314;-80
2021/12/09 02:26:24;;;;;;;23.48;10.27;;;;;;;;;;5458937;23;20046;-79
2021/12/09 02:28:54;;;;;;;23.75;12.75;;;;;;;;;;5129448;23;20074;-81
2021/12/09 02:31:20;;;;;;;26.33;11.05;;;;;;;;;;4998390;28;20019;-82
2021/12/09 02:36:11;;;;;;;29.10;12.25;;;;;;;;;;5023590;23;20105;-82
2021/12/09 02:38:43;;;;;;;25.42;13.27;;;;;;;;;;5001136;28;20082;-82
2021/12/09 02:41:16;;;;;;;26.88;13.82;;;;;;;;;;5008399;23;20441;-81
2021/12/09 02:43:45;;;;;;;20.63;12.55;;;;;;;;;;5001691;28;20034;-81
2021/12/09 02:46:13;;;;;;;36.50;10.40;;;;;;;;;;5001662;28;20015;-81
2021/12/09 02:48:39;;;;;;;32.75;10.40;;;;;;;;;;4999318;28;20372;-80
2021/12/09 02:51:05;;;;;;;22.80;10.15;;;;;;;;;;5003837;23;20038;-81
2021/12/09 02:53:32;;;;;;;27.25;11.27;;;;;;;;;;5016476;23;20454;-81
2021/12/09 02:55:58;;;;;;;31.25;12.98;;;;;;;;;;4996961;28;20073;-79
2021/12/09 02:58:24;;;;;;;24.42;11.05;;;;;;;;;;5001133;28;20026;-79
2021/12/09 03:01:00;;;;;;;24.13;10.60;;;;;;;;;;4999177;28;20353;-80
2021/12/09 03:03:27;;;;;;;35.45;15.15;;;;;;;;;;5000979;28;20023;-81
2021/12/09 03:05:55;;;;;;;29.75;15.88;;;;;;;;;;4998833;28;20093;-79
2021/12/09 03:08:34;;;;;;;26.30;13.68;;;;;;;;;;4983523;28;20030;-80
2021/12/09 03:11:07;;;;;;;27.67;12.00;;;;;;;;;;4998398;28;20015;-80
2021/12/09 03:13:37;;;;;;;20.52;9.25;;;;;;;;;;4998093;28;20325;-80
2021/12/09 03:16:03;;;;;;;25.85;10.57;;;;;;;;;;5004269;23;20053;-77
2021/12/09 03:18:30;;;;;;;33.72;14.45;;;;;;;;;;5000039;28;20077;-76
2021/12/09 03:20:56;;;;;;;17.77;12.27;;;;;;;;;;4995611;28;20019;-76
2021/12/09 03:23:23;;;;;;;29.02;12.05;;;;;;;;;;4997695;28;20041;-76
2021/12/09 03:25:52;;;;;;;26.60;11.73;;;;;;;;;;5005933;23;20045;-80
2021/12/09 03:28:18;;;;;;;28.08;9.73;;;;;;;;;;4999739;28;20027;-81
2021/12/09 03:30:44;;;;;;;24.33;9.68;;;;;;;;;;4998597;28;20336;-81
2021/12/09 03:33:11;;;;;;;31.67;11.13;;;;;;;;;;4997317;28;20057;-80
2021/12/09 03:35:38;;;;;;;33.50;14.68;;;;;;;;;;5008761;23;20042;-77
2021/12/09 03:38:05;;;;;;;30.58;13.27;;;;;;;;;;5024277;23;20050;-76
2021/12/09 03:40:31;;;;;;;33.33;13.43;;;;;;;;;;4996707;28;20022;-76
2021/12/09 03:42:57;;;;;;;19.48;10.63;;;;;;;;;;4997293;28;20129;-77
2021/12/09 03:45:23;;;;;;;31.63;15.13;;;;;;;;;;4997573;28;20478;-77
2021/12/09 03:47:49;;;;;;;31.70;13.52;;;;;;;;;;4996026;28;20049;-77
2021/12/09 03:50:17;;;;;;;31.88;14.35;;;;;;;;;;4998348;28;20037;-77
2021/12/09 03:52:43;;;;;;;42.90;15.40;;;;;;;;;;4997037;28;20022;-76
2021/12/09 03:55:09;;;;;;;30.23;12.55;;;;;;;;;;4996485;28;20030;-76
2021/12/09 03:57:36;;;;;;;24.05;12.82;;;;;;;;;;4996760;28;20030;-76
2021/12/09 04:00:04;;;;;;;31.08;13.50;;;;;;;;;;4995000;28;20029;-77
2021/12/09 04:02:30;;;;;;;29.10;11.35;;;;;;;;;;4994462;28;20018;-76
2021/12/09 04:04:56;;;;;;;23.10;10.20;;;;;;;;;;4996144;28;20030;-76
2021/12/09 04:07:22;;;;;;;23.90;11.23;;;;;;;;;;4977905;28;20417;-76
2021/12/09 04:09:49;;;;;;;36.33;10.65;;;;;;;;;;4996546;28;20030;-79
2021/12/09 04:12:15;;;;;;;26.27;10.98;;;;;;;;;;4995596;28;20022;-76
2021/12/09 04:14:41;;;;;;;29.88;15.65;;;;;;;;;;4995918;28;20109;-76
2021/12/09 04:17:09;;;;;;;24.63;9.43;;;;;;;;;;4995352;28;20121;-76
2021/12/09 04:19:35;;;;;;;36.40;8.65;;;;;;;;;;4995532;28;20141;-76
2021/12/09 04:22:02;;;;;;;20.90;9.15;;;;;;;;;;5002594;23;20028;-76
2021/12/09 04:24:28;;;;;;;33.53;10.40;;;;;;;;;;5015665;23;20326;-76
2021/12/09 04:26:54;;;;;;;20.65;8.23;;;;;;;;;;4994300;28;20031;-76
2021/12/09 04:29:20;;;;;;;26.40;9.82;;;;;;;;;;4995315;28;20042;-77
2021/12/09 04:31:51;;;;;;;27.25;9.48;;;;;;;;;;4993987;28;20018;-77
2021/12/09 04:34:18;;;;;;;38.45;7.70;;;;;;;;;;4994471;28;20114;-77
2021/12/09 04:36:44;;;;;;;23.83;8.15;;;;;;;;;;4996027;28;20565;-76
2021/12/09 04:39:11;;;;;;;29.95;8.75;;;;;;;;;;4978657;28;20034;-76
2021/12/09 04:41:39;;;;;;;17.50;8.82;;;;;;;;;;4994126;28;20022;-76
2021/12/09 04:44:06;;;;;;;19.27;7.78;;;;;;;;;;4994069;28;20084;-76
2021/12/09 04:46:32;;;;;;;26.58;7.15;;;;;;;;;;4995345;28;20022;-76
2021/12/09 04:48:58;;;;;;;18.13;6.40;;;;;;;;;;4995371;28;20053;-77
2021/12/09 04:51:24;;;;;;;12.88;6.43;;;;;;;;;;4994690;28;20018;-77
2021/12/09 04:53:50;;;;;;;18.30;7.55;;;;;;;;;;4996224;28;20447;-78
2021/12/09 04:56:16;;;;;;;15.18;6.38;;;;;;;;;;4994640;28;20046;-78
2021/12/09 04:58:42;;;;;;;16.65;6.63;;;;;;;;;;5000796;23;20105;-75
2021/12/09 05:01:08;;;;;;;15.27;5.22;;;;;;;;;;5000534;23;20053;-78
2021/12/09 05:03:34;;;;;;;29.70;8.63;;;;;;;;;;4994681;28;20031;-76
2021/12/09 05:06:01;;;;;;;24.38;10.00;;;;;;;;;;4995075;28;20326;-75
2021/12/09 05:08:28;;;;;;;21.15;9.90;;;;;;;;;;4996574;28;20030;-76
2021/12/09 05:11:08;;;;;;;27.35;10.10;;;;;;;;;;4996082;28;20019;-77
2021/12/09 05:13:44;;;;;;;25.35;10.35;;;;;;;;;;4992376;28;20459;-76
2021/12/09 05:16:11;;;;;;;26.65;9.93;;;;;;;;;;4995761;28;20018;-76
2021/12/09 05:18:40;;;;;;;24.20;8.88;;;;;;;;;;4995704;28;20128;-77
2021/12/09 05:21:06;;;;;;;23.92;7.95;;;;;;;;;;4997934;28;20033;-77
2021/12/09 05:23:35;;;;;;;30.38;11.35;;;;;;;;;;4998859;28;20018;-77
2021/12/09 05:26:02;;;;;;;28.75;10.35;;;;;;;;;;4996005;28;20040;-77
2021/12/09 05:28:34;;;;;;;26.65;9.18;;;;;;;;;;4995923;28;20441;-76
2021/12/09 05:33:48;;;;;;;33.72;11.13;;;;;;;;;;4996890;28;20026;-76
2021/12/09 05:36:15;;;;;;;36.47;14.00;;;;;;;;;;4996103;28;20014;-76
2021/12/09 05:38:41;;;;;;;42.33;16.20;;;;;;;;;;4995897;28;20018;-77
2021/12/09 05:41:07;;;;;;;32.80;17.33;;;;;;;;;;4995275;28;20421;-76
2021/12/09 05:43:34;;;;;;;35.83;16.52;;;;;;;;;;4997556;28;20034;-76
2021/12/09 05:46:00;;;;;;;46.78;19.85;;;;;;;;;;4993547;28;20042;-76
2021/12/09 05:48:26;;;;;;;31.90;16.30;;;;;;;;;;4997147;28;20054;-77
2021/12/09 05:50:52;;;;;;;21.48;11.52;;;;;;;;;;4996434;28;20025;-77
2021/12/09 05:53:18;;;;;;;32.35;14.00;;;;;;;;;;4994909;28;20036;-75
2021/12/09 05:55:44;;;;;;;37.80;16.92;;;;;;;;;;4992517;28;20029;-75
2021/12/09 05:58:15;;;;;;;38.00;15.48;;;;;;;;;;4976528;28;20441;-76
2021/12/09 06:00:42;;;;;;;29.63;16.42;;;;;;;;;;4990386;28;20364;-76
2021/12/09 06:03:08;;;;;;;33.17;15.57;;;;;;;;;;4991994;28;20495;-76
2021/12/09 06:05:35;;;;;;;31.90;16.38;;;;;;;;;;4995350;28;20485;-76
2021/12/09 06:08:03;;;;;;;45.38;17.13;;;;;;;;;;4997289;28;20110;-75
2021/12/09 06:10:30;;;;;;;30.10;17.10;;;;;;;;;;4981906;28;20104;-76
2021/12/09 06:12:57;;;;;;;32.60;13.93;;;;;;;;;;4998254;28;20077;-76
2021/12/09 06:15:29;;;;;;;27.30;14.20;;;;;;;;;;4996921;28;20046;-78
2021/12/09 06:18:00;;;;;;;25.15;12.88;;;;;;;;;;4981286;28;20053;-80
2021/12/09 06:20:26;;;;;;;29.10;12.07;;;;;;;;;;5008878;23;20137;-82
2021/12/09 06:22:54;;;;;;;20.55;11.25;;;;;;;;;;5241006;23;20319;-78
2021/12/09 06:28:23;;;;;;;17.88;9.65;;;;;;;;;;5034078;23;20042;-83
2021/12/09 06:30:49;;;;;;;20.10;10.25;;;;;;;;;;5003396;28;20030;-82
2021/12/09 06:33:17;;;;;;;26.67;11.93;;;;;;;;;;5005970;28;20015;-81
2021/12/09 06:35:43;;;;;;;28.23;13.98;;;;;;;;;;5007410;28;20116;-80
2021/12/09 06:38:14;;;;;;;23.55;12.38;;;;;;;;;;5008571;28;20045;-81
2021/12/09 06:40:41;;;;;;;38.33;15.02;;;;;;;;;;5009405;28;20396;-80
2021/12/09 06:43:07;;;;;;;39.72;16.05;;;;;;;;;;4984624;28;20022;-81
2021/12/09 06:45:33;;;;;;;35.47;19.17;;;;;;;;;;5052978;23;20039;-77
2021/12/09 06:47:59;;;;;;;35.83;18.00;;;;;;;;;;5018658;23;20046;-78
2021/12/09 06:50:25;;;;;;;35.28;19.88;;;;;;;;;;4997050;28;20417;-76
2021/12/09 06:52:52;;;;;;;43.88;20.83;;;;;;;;;;4998321;28;20030;-76
2021/12/09 06:57:52;;;;;;;26.60;12.68;;;;;;;;;;5031877;23;20069;-77
2021/12/09 07:00:20;;;;;;;24.00;14.27;;;;;;;;;;5022629;23;20057;-76
2021/12/09 07:02:46;;;;;;;28.02;14.63;;;;;;;;;;5053055;23;20066;-81
2021/12/09 07:05:13;;;;;;;35.22;16.58;;;;;;;;;;5005527;28;20034;-81
2021/12/09 07:07:40;;;;;;;37.72;14.80;;;;;;;;;;5002540;28;20032;-81
2021/12/09 07:10:10;;;;;;;31.65;15.93;;;;;;;;;;5003225;28;20014;-80
2021/12/09 07:12:38;;;;;;;36.03;13.50;;;;;;;;;;5008458;28;20053;-81
2021/12/09 07:15:05;;;;;;;29.25;12.45;;;;;;;;;;5003355;28;20027;-81
2021/12/09 07:17:32;;;;;;;29.35;15.05;;;;;;;;;;5002533;28;20023;-80
2021/12/09 07:19:58;;;;;;;55.03;18.77;;;;;;;;;;5003495;28;20022;-81
2021/12/09 07:22:24;;;;;;;33.67;15.48;;;;;;;;;;4987368;28;20053;-80
2021/12/09 07:24:51;;;;;;;27.00;17.25;;;;;;;;;;5003361;28;20037;-80
2021/12/09 07:27:17;;;;;;;36.65;16.70;;;;;;;;;;5000784;28;20360;-81
2021/12/09 07:29:43;;;;;;;29.48;14.88;;;;;;;;;;5000575;28;20028;-81
2021/12/09 07:32:13;;;;;;;39.33;15.07;;;;;;;;;;5064627;23;20038;-78
2021/12/09 07:34:45;;;;;;;25.95;14.52;;;;;;;;;;4997068;28;20165;-79
2021/12/09 07:37:14;;;;;;;22.38;12.90;;;;;;;;;;4962371;28;20120;-78
2021/12/09 07:39:41;;;;;;;33.20;13.63;;;;;;;;;;4994182;28;20028;-77
2021/12/09 07:42:08;;;;;;;32.63;13.00;;;;;;;;;;4977783;28;20372;-79
2021/12/09 07:44:36;;;;;;;35.28;16.67;;;;;;;;;;4995509;28;20311;-78
2021/12/09 07:47:05;;;;;;;30.48;16.38;;;;;;;;;;4997053;28;20098;-78
2021/12/09 07:49:35;;;;;;;32.33;15.05;;;;;;;;;;4977901;28;20859;-77
2021/12/09 07:52:03;;;;;;;25.35;13.52;;;;;;;;;;4993997;28;20025;-77
2021/12/09 07:54:30;;;;;;;28.90;14.00;;;;;;;;;;4994657;28;20022;-78
2021/12/09 07:56:57;;;;;;;27.67;15.02;;;;;;;;;;4996036;28;20134;-77
2021/12/09 07:59:23;;;;;;;20.80;11.90;;;;;;;;;;4979245;28;20018;-79
2021/12/09 08:01:52;;;;;;;28.33;15.98;;;;;;;;;;4995591;28;20038;-77
2021/12/09 08:04:19;;;;;;;30.55;15.85;;;;;;;;;;4979105;28;20033;-78
2021/12/09 08:06:45;;;;;;;40.60;19.80;;;;;;;;;;4989817;23;20132;-77
2021/12/09 08:09:14;;;;;;;36.33;18.95;;;;;;;;;;4995493;28;20030;-76
2021/12/09 08:11:42;;;;;;;29.17;14.88;;;;;;;;;;4995290;28;20497;-78
2021/12/09 08:14:11;;;;;;;29.08;13.35;;;;;;;;;;4995368;28;20030;-77
2021/12/09 08:16:38;;;;;;;24.33;13.73;;;;;;;;;;4978340;28;20026;-77
2021/12/09 08:19:05;;;;;;;21.15;13.10;;;;;;;;;;4994929;28;20034;-77
2021/12/09 08:21:36;;;;;;;27.23;14.65;;;;;;;;;;4979233;28;20026;-77
2021/12/09 08:24:03;;;;;;;27.02;15.48;;;;;;;;;;4979212;28;20040;-77
2021/12/09 08:26:30;;;;;;;25.77;14.85;;;;;;;;;;4979272;28;20425;-78
2021/12/09 08:28:56;;;;;;;22.92;14.13;;;;;;;;;;4996509;28;20030;-77
2021/12/09 08:31:22;;;;;;;30.27;14.43;;;;;;;;;;4995824;28;20425;-78
2021/12/09 08:33:52;;;;;;;32.88;14.68;;;;;;;;;;4996778;28;20425;-77
2021/12/09 08:36:27;;;;;;;41.15;18.13;;;;;;;;;;4980842;28;20313;-77
2021/12/09 08:38:53;;;;;;;34.20;20.70;;;;;;;;;;4979292;28;20045;-77
2021/12/09 08:41:26;;;;;;;42.13;22.40;;;;;;;;;;4995745;28;20100;-78
2021/12/09 08:43:52;;;;;;;35.53;21.55;;;;;;;;;;4995483;28;20421;-77
2021/12/09 08:46:18;;;;;;;39.83;23.50;;;;;;;;;;4978978;28;20030;-77
2021/12/09 08:48:46;;;;;;;41.78;22.45;;;;;;;;;;4995357;28;20053;-77
2021/12/09 08:51:14;;;;;;;36.60;18.88;;;;;;;;;;4978996;28;20112;-76
2021/12/09 08:53:41;;;;;;;48.70;24.52;;;;;;;;;;4995266;28;20045;-78
2021/12/09 08:56:07;;;;;;;41.65;23.48;;;;;;;;;;4995521;28;20326;-77
2021/12/09 08:58:33;;;;;;;41.25;23.85;;;;;;;;;;4995523;28;20026;-77
2021/12/09 09:01:01;;;;;;;44.95;24.23;;;;;;;;;;4979025;28;20022;-78
2021/12/09 09:03:27;;;;;;;33.72;21.85;;;;;;;;;;4978963;28;20026;-78
2021/12/09 09:05:59;;;;;;;50.78;21.38;;;;;;;;;;4996752;28;20104;-77
2021/12/09 09:08:32;;;;;;;36.92;20.70;;;;;;;;;;4979091;28;20034;-77
2021/12/09 09:10:58;;;;;;;29.15;16.63;;;;;;;;;;4963074;28;20026;-77
2021/12/09 09:13:25;;;;;;;24.92;15.15;;;;;;;;;;4995082;28;20026;-78
2021/12/09 09:15:52;;;;;;;30.45;14.73;;;;;;;;;;4979106;28;20022;-77
2021/12/09 09:18:21;;;;;;;25.67;12.57;;;;;;;;;;4979272;28;20100;-77
2021/12/09 09:20:47;;;;;;;30.85;16.23;;;;;;;;;;4995226;28;20487;-77
2021/12/09 09:23:15;;;;;;;25.55;14.02;;;;;;;;;;4993531;28;20344;-77
2021/12/09 09:25:41;;;;;;;34.08;18.10;;;;;;;;;;4994475;28;20333;-78
2021/12/09 09:28:09;;;;;;;25.35;13.35;;;;;;;;;;4994903;28;20018;-77
2021/12/09 09:30:38;;;;;;;36.05;14.32;;;;;;;;;;4994988;28;20572;-77
2021/12/09 09:33:07;;;;;;;25.25;12.55;;;;;;;;;;4978599;28;20030;-77
2021/12/09 09:35:35;;;;;;;26.00;11.98;;;;;;;;;;4995187;28;20413;-77
2021/12/09 09:38:02;;;;;;;26.92;12.55;;;;;;;;;;4996274;28;20448;-78
2021/12/09 09:40:38;;;;;;;26.33;12.85;;;;;;;;;;4999394;28;20031;-78
2021/12/09 09:43:14;;;;;;;23.13;13.05;;;;;;;;;;4983281;28;20023;-78
2021/12/09 09:45:41;;;;;;;36.40;13.13;;;;;;;;;;5004353;23;20524;-77
2021/12/09 09:48:08;;;;;;;23.02;10.73;;;;;;;;;;4983029;28;20337;-78
2021/12/09 09:50:34;;;;;;;24.50;11.85;;;;;;;;;;4983463;28;20034;-77
2021/12/09 09:53:00;;;;;;;30.73;11.10;;;;;;;;;;5000728;28;20033;-78
2021/12/09 09:55:30;;;;;;;30.23;12.70;;;;;;;;;;5000019;28;20061;-78
2021/12/09 09:57:57;;;;;;;26.73;11.90;;;;;;;;;;4983118;28;20369;-78
2021/12/09 10:00:24;;;;;;;23.45;13.10;;;;;;;;;;4996128;23;20038;-77
2021/12/09 10:02:54;;;;;;;24.95;12.13;;;;;;;;;;5000320;28;20035;-78
2021/12/09 10:05:28;;;;;;;27.17;11.40;;;;;;;;;;4983016;28;20425;-78
2021/12/09 10:07:55;;;;;;;27.25;14.32;;;;;;;;;;4982998;28;20274;-78
2021/12/09 10:10:24;;;;;;;36.10;14.52;;;;;;;;;;4998485;28;20409;-78
2021/12/09 10:12:58;;;;;;;34.78;14.85;;;;;;;;;;4982654;28;20022;-78
2021/12/09 10:15:42;;;;;;;30.08;14.82;;;;;;;;;;5013485;23;20062;-78
2021/12/09 10:18:08;;;;;;;32.17;16.67;;;;;;;;;;5006018;23;20046;-77
2021/12/09 10:20:45;;;;;;;36.22;18.00;;;;;;;;;;5000411;28;20029;-77
2021/12/09 10:23:37;;;;;;;32.97;17.70;;;;;;;;;;5000689;28;20057;-76
2021/12/09 10:26:12;;;;;;;35.15;17.83;;;;;;;;;;4995842;28;20088;-76
2021/12/09 10:28:40;;;;;;;39.53;19.90;;;;;;;;;;4999549;28;20104;-76
2021/12/09 10:31:14;;;;;;;44.35;18.75;;;;;;;;;;4999576;28;20380;-76
2021/12/09 10:34:02;;;;;;;34.45;15.82;;;;;;;;;;5001064;28;20341;-76
2021/12/09 10:36:47;;;;;;;31.63;15.18;;;;;;;;;;4982674;28;20018;-77
2021/12/09 10:39:28;;;;;;;36.38;20.08;;;;;;;;;;5000206;28;20029;-77
2021/12/09 10:41:55;;;;;;;29.50;16.90;;;;;;;;;;4999269;28;20038;-77
2021/12/09 10:44:31;;;;;;;35.42;18.73;;;;;;;;;;4983094;28;20045;-77
2021/12/09 10:47:15;;;;;;;34.45;19.33;;;;;;;;;;5000259;28;20313;-77
2021/12/09 10:50:07;;;;;;;35.90;19.00;;;;;;;;;;4998689;28;20411;-77
2021/12/09 10:52:38;;;;;;;41.10;18.80;;;;;;;;;;4998869;28;20310;-77
2021/12/09 10:55:09;;;;;;;42.22;18.95;;;;;;;;;;4999501;28;20156;-76
2021/12/09 10:57:35;;;;;;;41.10;20.60;;;;;;;;;;4998435;28;20096;-77
2021/12/09 11:00:34;;;;;;;43.33;19.98;;;;;;;;;;4999931;28;20484;-78
2021/12/09 11:03:00;;;;;;;36.63;18.75;;;;;;;;;;4947075;28;20041;-77
2021/12/09 11:05:27;;;;;;;40.97;19.95;;;;;;;;;;4999974;28;20030;-78
2021/12/09 11:07:53;;;;;;;49.50;22.63;;;;;;;;;;4993008;23;20042;-81
2021/12/09 11:10:21;;;;;;;44.80;20.00;;;;;;;;;;5005498;28;20018;-80
2021/12/09 11:12:48;;;;;;;40.28;21.33;;;;;;;;;;5005776;28;20484;-80
2021/12/09 11:15:15;;;;;;;42.90;20.50;;;;;;;;;;5005123;28;20022;-81
2021/12/09 11:17:45;;;;;;;39.88;22.50;;;;;;;;;;4988226;28;20023;-80
2021/12/09 11:20:12;;;;;;;46.45;24.27;;;;;;;;;;5005764;28;20030;-81
2021/12/09 11:22:39;;;;;;;41.10;20.52;;;;;;;;;;5005009;28;20042;-80
2021/12/09 11:25:29;;;;;;;46.60;23.55;;;;;;;;;;5004604;28;20034;-80
2021/12/09 11:28:08;;;;;;;47.65;23.48;;;;;;;;;;5004105;28;20023;-81
2021/12/09 11:30:54;;;;;;;45.78;23.13;;;;;;;;;;5006399;28;20115;-81
2021/12/09 11:33:38;;;;;;;57.65;25.45;;;;;;;;;;5004581;28;20453;-81
2021/12/09 11:36:06;;;;;;;54.58;28.42;;;;;;;;;;5004314;28;20033;-80
2021/12/09 11:38:55;;;;;;;59.88;25.92;;;;;;;;;;5005595;28;20413;-81
2021/12/09 11:41:28;;;;;;;57.58;26.60;;;;;;;;;;5003732;28;20022;-81
2021/12/09 11:43:54;;;;;;;51.55;28.63;;;;;;;;;;4986420;28;20041;-81
2021/12/09 11:46:20;;;;;;;56.83;31.52;;;;;;;;;;5001572;28;20026;-81
2021/12/09 11:48:46;;;;;;;51.92;30.10;;;;;;;;;;5002864;28;20432;-80
2021/12/09 11:51:12;;;;;;;56.65;29.75;;;;;;;;;;5048462;23;20349;-80
2021/12/09 11:53:42;;;;;;;55.70;30.25;;;;;;;;;;5004775;28;20022;-81
2021/12/09 11:56:23;;;;;;;62.10;33.10;;;;;;;;;;5004502;28;20014;-80
2021/12/09 12:12:38;;;;;;;88.43;46.53;;;;;;;;;;5009605;23;20445;-81
2021/12/09 12:15:29;;;;;;;106.10;58.17;;;;;;;;;;5004227;28;20030;-81
2021/12/09 12:18:58;;;;;;;83.00;44.10;;;;;;;;;;5003838;28;20014;-81
2021/12/09 12:26:58;;;;;;;117.57;58.90;;;;;;;;;;5002630;28;20073;-81
2021/12/09 12:29:49;;;;;;;94.72;44.45;;;;;;;;;;5003226;28;20271;-80
2021/12/09 12:35:29;;;;;;;75.78;34.88;;;;;;;;;;4990401;28;20038;-81
2021/12/09 12:40:23;;;;;;;69.97;36.47;;;;;;;;;;5006483;28;20094;-81
2021/12/09 12:43:02;;;;;;;54.10;31.27;;;;;;;;;;5003993;28;20026;-82
2021/12/09 12:45:42;;;;;;;51.25;28.67;;;;;;;;;;4998053;28;20067;-81
2021/12/09 12:48:32;;;;;;;47.67;26.33;;;;;;;;;;4998745;28;20018;-82
2021/12/09 12:51:08;;;;;;;42.92;22.10;;;;;;;;;;5000364;28;20086;-82
2021/12/09 12:53:41;;;;;;;46.08;19.38;;;;;;;;;;4998225;28;20033;-82
2021/12/09 12:56:10;;;;;;;49.17;22.73;;;;;;;;;;4999836;28;20026;-82
2021/12/09 12:58:36;;;;;;;67.68;33.28;;;;;;;;;;4998897;28;20018;-82
2021/12/09 13:01:18;;;;;;;90.82;41.83;;;;;;;;;;4999622;28;20026;-82
2021/12/09 13:03:52;;;;;;;81.82;40.08;;;;;;;;;;4998428;28;20496;-82
2021/12/09 13:06:40;;;;;;;73.88;36.60;;;;;;;;;;4998217;28;20349;-82
2021/12/09 13:09:25;;;;;;;60.67;31.10;;;;;;;;;;4998054;28;20018;-82
2021/12/09 13:11:58;;;;;;;57.60;30.85;;;;;;;;;;4998299;28;20037;-82
2021/12/09 13:14:29;;;;;;;64.55;30.58;;;;;;;;;;4999139;28;20351;-82
2021/12/09 13:19:48;;;;;;;112.35;58.55;;;;;;;;;;5002952;28;20121;-82
2021/12/09 13:22:34;;;;;;;122.70;59.92;;;;;;;;;;5002057;28;20030;-82
2021/12/09 13:25:12;;;;;;;101.85;53.58;;;;;;;;;;5003858;28;20455;-82
2021/12/09 13:27:48;;;;;;;121.22;65.25;;;;;;;;;;5003480;28;20034;-81
2021/12/09 13:49:01;;;;;;;75.85;38.42;;;;;;;;;;5041668;23;20031;-82
2021/12/09 13:51:53;;;;;;;72.55;32.33;;;;;;;;;;5002798;28;20025;-82
2021/12/09 13:56:56;;;;;;;58.47;26.23;;;;;;;;;;5334206;23;20261;-81
2021/12/09 13:59:23;;;;;;;52.65;24.30;;;;;;;;;;5003292;28;20417;-81
2021/12/09 14:01:50;;;;;;;45.60;25.42;;;;;;;;;;5000850;28;20022;-81
2021/12/09 14:04:20;;;;;;;60.25;30.95;;;;;;;;;;5000526;28;20038;-81
2021/12/09 14:06:52;;;;;;;50.22;25.38;;;;;;;;;;4987879;28;20153;-81
2021/12/09 14:09:18;;;;;;;62.58;29.40;;;;;;;;;;5002692;28;20038;-81
2021/12/09 14:11:48;;;;;;;53.63;26.48;;;;;;;;;;5004037;28;20033;-81
2021/12/09 14:14:19;;;;;;;55.43;26.83;;;;;;;;;;5001823;28;20105;-81
2021/12/09 14:21:45;;;;;;;61.88;30.73;;;;;;;;;;5003697;28;20084;-81
2021/12/09 14:24:15;;;;;;;60.08;29.20;;;;;;;;;;5014366;23;20046;-81
2021/12/09 14:26:42;;;;;;;68.90;33.37;;;;;;;;;;5000905;28;20101;-81
2021/12/09 14:29:09;;;;;;;62.17;30.85;;;;;;;;;;5001945;28;20343;-81
2021/12/09 14:31:46;;;;;;;43.20;24.80;;;;;;;;;;4984455;28;20018;-81
2021/12/09 14:34:13;;;;;;;62.50;25.27;;;;;;;;;;5001625;28;20026;-81
2021/12/09 14:36:40;;;;;;;51.45;26.60;;;;;;;;;;5000988;28;20018;-81
2021/12/09 14:39:07;;;;;;;51.55;27.10;;;;;;;;;;5001192;28;20025;-81
2021/12/09 14:41:35;;;;;;;67.38;31.13;;;;;;;;;;5000760;28;20018;-81
2021/12/09 14:44:04;;;;;;;58.03;26.95;;;;;;;;;;5001884;28;20030;-81
2021/12/09 14:46:36;;;;;;;60.17;27.27;;;;;;;;;;5001830;28;20026;-82
2021/12/09 14:49:22;;;;;;;48.78;22.92;;;;;;;;;;5001164;28;20023;-81
2021/12/09 14:51:50;;;;;;;44.88;24.73;;;;;;;;;;5001756;28;20022;-81
2021/12/09 14:54:17;;;;;;;46.97;23.80;;;;;;;;;;4999955;28;20019;-81
2021/12/09 14:56:46;;;;;;;57.22;26.95;;;;;;;;;;4983466;28;20457;-81
2021/12/09 14:59:21;;;;;;;69.45;31.02;;;;;;;;;;5000943;28;20022;-81
2021/12/09 15:01:50;;;;;;;49.90;27.02;;;;;;;;;;5001764;28;20038;-81
2021/12/09 15:04:29;;;;;;;51.58;27.30;;;;;;;;;;4984378;28;20030;-81
2021/12/09 15:06:58;;;;;;;52.83;28.83;;;;;;;;;;5001474;28;20026;-81
2021/12/09 15:09:24;;;;;;;54.28;28.15;;;;;;;;;;5000447;28;20022;-81
2021/12/09 15:11:55;;;;;;;54.55;27.70;;;;;;;;;;5001355;28;20073;-81
2021/12/09 15:14:25;;;;;;;56.85;30.17;;;;;;;;;;5000995;28;20018;-81
2021/12/09 15:16:51;;;;;;;;;;;;;;;;;;5001526;28;20029;-81
2021/12/09 15:19:20;;;;;;;63.75;34.75;;;;;;;;;;5018758;23;19921;-81
2021/12/09 15:22:04;;;;;;;70.38;33.60;;;;;;;;;;5000650;28;20018;-81
2021/12/09 15:24:30;;;;;;;64.35;32.00;;;;;;;;;;5001270;28;20435;-81
2021/12/09 15:26:56;;;;;;;74.15;35.85;;;;;;;;;;4983498;28;20018;-81
2021/12/09 15:29:22;;;;;;;73.20;38.13;;;;;;;;;;5001175;28;20026;-81
2021/12/09 15:31:55;;;;;;;82.82;40.67;;;;;;;;;;5001659;28;20033;-81
2021/12/09 15:34:25;;;;;;;69.90;33.78;;;;;;;;;;5001344;28;20360;-81
2021/12/09 15:36:56;;;;;;;74.20;36.17;;;;;;;;;;4998825;28;20026;-81
2021/12/09 15:39:23;;;;;;;82.75;38.58;;;;;;;;;;5000097;28;20417;-82
2021/12/09 15:41:52;;;;;;;89.10;43.20;;;;;;;;;;4999768;28;20023;-81